Página principal
METAR-TAF:

METAR-TAF

Aeroportos :

Armilla

Granada, Espanha

latitude: 37-08N, longitude: 003-38-08W, altura: 700 m

Observação actual do tempo

O boletim foi feito há 1 hora e 18 minutos, às 10:00 UTC
Vento 4 kt de norte
Temperatura 28°C
Humidade 58%
Pressão 1020 hPa
Visibilidade 10 km ou mais
Poucas nuvensa uma altura de 7000 ft

METAR: LEGA 191000Z 36004KT 9999 FEW070 28/19 Q1020

Hora: 13:18 (11:18 UTC)

Previsão

O boletim foi feito há 3 horas e 18 minutos, às 08:00 UTC
Previsão válida de 19 às 09 UTC a 19 às 18 UTC
Vento 5 kt de noroeste
Visibilidade 10 km ou mais
sem nuvens abaixo de 1500 metros e sem cumulonimbus
Probabilidade 40% :
Temporariamente
de 19 às 12 UTC a 19 às 18 UTC
Poucas nuvensa uma altura de 3000 ft, Cumulus congestus.
aguaceiros de chuva

TAF: LEGA 190800Z 1909/1918 31005KT CAVOK PROB40 TEMPO 1912/1918 SHRA FEW030TCU

Observações e previsões do tempo de mais de 4000 aeroportos (mensagens METAR e TAF).

As estações disponíveis são os pontos amarelos e vermelhos sobre o mapa.

Mova o rato sobre o mapa para ver o nome da estação.

Depois clique no ponto para visualizar as observações e previsões meteorológicas.

Para alterar o mapa : clique nos botões verdes com uma cruz preta para aumentar o zoom; no botão verde com uma pitada de zoom; ou nas setas verdes para mapas adjacentes.


METAR-TAF: